Airfield :
LOGIN :

Register | Disclaimer

   EN    FR    IT 

 










Legend :    VFR   Marginal VFR   IFR   Intensive IFR   Very Intensive IFR
Visi :
Ceiling :
>= 8 km
>= 3000ft
5 to 8 km
1000 to 3000 ft
1500m to 5 km
500 to 1000 ft
800 to 1500m
200 to 500 ft
< 800m
< 200 ft
Symbols :   Thunderstorms  Fog  Heavy snow  Heavy precipitations  Wind > 20 kt
SIGMETs :     Misc.  Thunderstorms  Icing  Turbulence  Mountain Waves  Volcanic Ashes







- Airport Elevation : 412 ft
- IATA code : ORE
- Download approach charts


LFOJ - Orleans

CURRENT METAR :
  • 260700Z AUTO 27004KT 240V300 9999 FEW029 15/13 Q1019

EXPIRED METARs :
  • 260630Z AUTO 28004KT 250V310 CAVOK 14/12 Q1019
  • 260600Z AUTO 26003KT CAVOK 14/13 Q1018
  • 260530Z AUTO 00000KT 9999 FEW024 OVC120 13/12 Q1018
  • 260500Z AUTO VRB02KT 8000 BKN026 OVC110 12/11 Q1018
  • 260430Z AUTO 30004KT 6000 FEW023 SCT044 BKN120 11/11 Q1019
  • 260400Z AUTO 29004KT 4000 BR NSC 11/10 Q1019

TAF TAF LFOJ
Valid from the 25 at 15:00 until the 26 at 15:00 UTC


251400Z 2515/2615 32010KT CAVOK
PROB40
TEMPO 2515/2521 4000 SHRA BKN030TCU
PROB40
TEMPO 2604/2608 3000 BR BKN015
No reported NOTAMs for that airfield.



MET'MAP, your aeronautical weather chart ! - Copyright ORBIFLY December 2007 - Disclaimer

ORBIFLY MET'MAP TEAM :

Programming & Development : Alexandra Zaïnal
Concept & Development : Baudouin d'Aumeries
Co-Development & Prog : Marc-Olivier Méhu
Technical & hardware support : Manuel Goepfert

Contact : metmap@orbifly.com




SOURCES & CREDITS :

   NOAA